createdAt,value
2023-04-09T00:01:59.113Z,59.20
2023-04-09T00:04:25.801Z,59.20
2023-04-09T00:06:54.786Z,59.20
2023-04-09T00:09:31.957Z,59.20
2023-04-09T00:12:02.008Z,59.20
2023-04-09T00:14:35.956Z,59.20
2023-04-09T00:17:07.961Z,59.30
2023-04-09T00:19:34.508Z,58.80
2023-04-09T00:22:04.159Z,58.90
2023-04-09T00:24:30.768Z,59.00
2023-04-09T00:26:59.877Z,58.90
2023-04-09T00:29:29.438Z,58.80
2023-04-09T00:31:56.054Z,58.70
2023-04-09T00:34:30.027Z,58.70
2023-04-09T00:36:56.638Z,58.80
2023-04-09T00:39:23.216Z,58.80
2023-04-09T00:41:50.102Z,58.80
2023-04-09T00:44:18.898Z,58.90
2023-04-09T00:46:47.669Z,59.10
2023-04-09T00:49:14.397Z,59.20
2023-04-09T00:51:41.117Z,59.40
2023-04-09T00:54:12.792Z,59.40
2023-04-09T00:56:44.786Z,59.70
2023-04-09T00:59:14.527Z,59.90
2023-04-09T01:01:41.092Z,59.80
2023-04-09T01:04:10.552Z,59.90
2023-04-09T01:06:49.329Z,59.90
2023-04-09T01:09:28.433Z,60.40
2023-04-09T01:12:23.964Z,60.70
2023-04-09T01:15:11.580Z,61.10
2023-04-09T01:17:44.762Z,61.40
2023-04-09T01:20:32.628Z,61.30
2023-04-09T01:23:10.960Z,61.90
2023-04-09T01:26:19.544Z,62.30
2023-04-09T01:28:55.774Z,62.30
2023-04-09T01:31:35.821Z,61.50
2023-04-09T01:34:06.164Z,62.00
2023-04-09T01:36:35.009Z,61.90
2023-04-09T01:39:04.761Z,61.90
2023-04-09T01:41:33.183Z,62.30
2023-04-09T01:44:03.035Z,62.50
2023-04-09T01:46:39.071Z,63.40
2023-04-09T01:49:06.504Z,63.10
2023-04-09T01:51:33.705Z,62.80
2023-04-09T01:54:02.888Z,62.60
2023-04-09T01:56:41.616Z,62.40
2023-04-09T01:59:08.525Z,62.70
2023-04-09T02:01:45.839Z,62.10
2023-04-09T02:04:25.655Z,62.20
2023-04-09T02:06:58.422Z,62.30
2023-04-09T02:09:30.459Z,62.00
2023-04-09T02:12:02.460Z,61.80
2023-04-09T02:14:34.030Z,61.70
2023-04-09T02:17:01.943Z,61.50
2023-04-09T02:19:45.289Z,61.30
2023-04-09T02:22:14.942Z,61.70
2023-04-09T02:24:48.948Z,61.40
2023-04-09T02:27:18.676Z,61.30
2023-04-09T02:29:45.304Z,61.40
2023-04-09T02:32:14.953Z,61.60
2023-04-09T02:34:44.022Z,62.00
2023-04-09T02:37:12.984Z,62.30
2023-04-09T02:39:45.822Z,62.30
2023-04-09T02:42:12.571Z,62.40
2023-04-09T02:44:41.760Z,62.30
2023-04-09T02:47:08.443Z,62.30
2023-04-09T02:49:41.845Z,62.20
2023-04-09T02:52:12.341Z,62.20
2023-04-09T02:54:39.021Z,62.20
2023-04-09T02:57:05.612Z,62.10
2023-04-09T02:59:34.171Z,62.00
2023-04-09T03:02:02.460Z,62.00
2023-04-09T03:04:31.374Z,62.00
2023-04-09T03:06:59.709Z,61.90
2023-04-09T03:09:26.493Z,61.70
2023-04-09T03:11:53.070Z,61.50
2023-04-09T03:14:19.613Z,61.30
2023-04-09T03:16:46.213Z,61.10
2023-04-09T03:19:12.832Z,61.00
2023-04-09T03:21:41.668Z,60.90
2023-04-09T03:24:15.666Z,60.80
2023-04-09T03:26:42.926Z,60.70
2023-04-09T03:29:12.654Z,60.60
2023-04-09T03:31:39.318Z,60.60
2023-04-09T03:34:10.159Z,60.50
2023-04-09T03:36:39.650Z,60.60
2023-04-09T03:39:30.735Z,60.50
2023-04-09T03:41:59.788Z,60.40
2023-04-09T03:44:31.025Z,60.50
2023-04-09T03:47:09.534Z,60.60
2023-04-09T03:49:37.820Z,60.60
2023-04-09T03:52:21.508Z,60.60
2023-04-09T03:54:56.097Z,60.70
2023-04-09T03:57:27.322Z,60.70
2023-04-09T03:59:57.842Z,60.70
2023-04-09T04:02:31.892Z,60.80
2023-04-09T04:05:14.693Z,60.90
2023-04-09T04:07:46.134Z,60.80
2023-04-09T04:10:20.458Z,60.80
2023-04-09T04:12:47.687Z,60.90
2023-04-09T04:15:46.454Z,61.00
2023-04-09T04:18:14.095Z,61.00
2023-04-09T04:20:47.051Z,61.00
2023-04-09T04:23:15.166Z,61.10
2023-04-09T04:25:58.069Z,61.10
2023-04-09T04:28:35.465Z,61.50
2023-04-09T04:31:12.189Z,61.30
2023-04-09T04:33:41.830Z,61.50
2023-04-09T04:36:15.708Z,61.20
2023-04-09T04:38:48.231Z,61.20
2023-04-09T04:41:49.934Z,61.30
2023-04-09T04:44:24.207Z,61.30
2023-04-09T04:47:00.768Z,61.30
2023-04-09T04:49:30.177Z,61.40
2023-04-09T04:52:02.931Z,61.60
2023-04-09T04:54:32.609Z,61.90
2023-04-09T04:57:02.426Z,61.90
2023-04-09T04:59:40.783Z,62.10
2023-04-09T05:02:12.991Z,62.00
2023-04-09T05:05:01.780Z,62.00
2023-04-09T05:07:41.245Z,61.90
2023-04-09T05:10:10.999Z,61.90
2023-04-09T05:12:45.767Z,62.00
2023-04-09T05:15:32.198Z,62.00
2023-04-09T05:17:59.458Z,62.00
2023-04-09T05:20:31.750Z,62.00
2023-04-09T05:23:11.379Z,62.00
2023-04-09T05:25:45.236Z,62.00
2023-04-09T05:28:22.749Z,62.10
2023-04-09T05:30:56.580Z,62.10
2023-04-09T05:33:25.098Z,62.30
2023-04-09T05:35:51.789Z,62.40
2023-04-09T05:38:18.999Z,62.50
2023-04-09T05:40:52.756Z,62.60
2023-04-09T05:43:19.795Z,62.70
2023-04-09T05:45:48.103Z,62.80
2023-04-09T05:48:14.902Z,63.00
2023-04-09T05:50:55.145Z,63.10
2023-04-09T05:53:26.250Z,63.50
2023-04-09T05:55:52.898Z,63.10
2023-04-09T05:58:23.989Z,63.20
2023-04-09T06:00:52.408Z,63.30
2023-04-09T06:03:19.687Z,63.40
2023-04-09T06:05:50.240Z,63.60
2023-04-09T06:08:19.709Z,63.70
2023-04-09T06:10:47.271Z,64.00
2023-04-09T06:13:19.587Z,63.90
2023-04-09T06:15:49.522Z,64.20
2023-04-09T06:18:18.854Z,64.00
2023-04-09T06:20:45.507Z,64.10
2023-04-09T06:23:14.611Z,64.10
2023-04-09T06:25:41.247Z,64.40
2023-04-09T06:28:12.690Z,64.30
2023-04-09T06:30:39.477Z,64.40
2023-04-09T06:33:06.144Z,64.50
2023-04-09T06:35:35.173Z,65.00
2023-04-09T06:38:01.793Z,65.40
2023-04-09T06:40:31.125Z,65.50
2023-04-09T06:42:59.692Z,65.80
2023-04-09T06:45:31.085Z,66.00
2023-04-09T06:47:58.057Z,66.40
2023-04-09T06:50:24.683Z,66.40
2023-04-09T06:52:54.864Z,66.70
2023-04-09T06:55:21.771Z,66.70
2023-04-09T06:57:48.365Z,66.80
2023-04-09T07:00:15.421Z,66.80
2023-04-09T07:02:42.198Z,67.00
2023-04-09T07:05:09.334Z,67.00
2023-04-09T07:07:35.881Z,67.10
2023-04-09T07:10:02.567Z,67.20
2023-04-09T07:12:31.217Z,67.10
2023-04-09T07:15:07.509Z,67.20
2023-04-09T07:17:35.129Z,67.70
2023-04-09T07:20:02.116Z,67.10
2023-04-09T07:22:29.648Z,67.00
2023-04-09T07:24:56.553Z,67.00
2023-04-09T07:27:27.822Z,67.10
2023-04-09T07:30:10.864Z,67.20
2023-04-09T07:32:37.975Z,67.20
2023-04-09T07:35:09.642Z,67.10
2023-04-09T07:37:38.530Z,67.00
2023-04-09T07:40:05.895Z,66.90
2023-04-09T07:42:34.784Z,66.90
2023-04-09T07:45:03.887Z,66.70
2023-04-09T07:47:32.725Z,66.50
2023-04-09T07:50:02.908Z,66.50
2023-04-09T07:52:34.389Z,66.40
2023-04-09T07:55:01.277Z,66.20
2023-04-09T07:57:28.085Z,66.10
2023-04-09T07:59:59.190Z,66.10
2023-04-09T08:02:29.621Z,66.10
2023-04-09T08:04:56.765Z,66.10
2023-04-09T08:07:23.572Z,65.90
2023-04-09T08:09:52.407Z,65.60
2023-04-09T08:12:23.749Z,65.70
2023-04-09T08:14:53.282Z,65.80
2023-04-09T08:17:23.707Z,65.50
2023-04-09T08:19:52.921Z,65.30
2023-04-09T08:22:19.516Z,64.90
2023-04-09T08:24:51.952Z,64.70
2023-04-09T08:27:19.825Z,64.50
2023-04-09T08:29:46.367Z,64.30
2023-04-09T08:32:13.068Z,64.40
2023-04-09T08:34:42.233Z,64.50
2023-04-09T08:37:08.787Z,64.40
2023-04-09T08:39:36.263Z,64.30
2023-04-09T08:42:04.401Z,64.00
2023-04-09T08:44:31.096Z,63.90
2023-04-09T08:46:59.717Z,63.90
2023-04-09T08:49:26.406Z,63.80
2023-04-09T08:51:55.838Z,63.60
2023-04-09T08:54:23.661Z,63.50
2023-04-09T08:56:50.468Z,63.70
2023-04-09T08:59:20.694Z,63.70
2023-04-09T09:01:52.456Z,63.40
2023-04-09T09:04:19.549Z,63.50
2023-04-09T09:06:46.516Z,63.60
2023-04-09T09:09:18.741Z,63.60
2023-04-09T09:11:48.165Z,63.50
2023-04-09T09:14:17.073Z,63.30
2023-04-09T09:17:04.963Z,63.20
2023-04-09T09:19:34.124Z,63.10
2023-04-09T09:22:03.044Z,62.90
2023-04-09T09:24:32.492Z,63.00
2023-04-09T09:26:59.474Z,62.90
2023-04-09T09:29:27.415Z,62.70
2023-04-09T09:31:55.447Z,62.30
2023-04-09T09:34:23.587Z,62.10
2023-04-09T09:36:53.109Z,62.20
2023-04-09T09:39:19.958Z,61.90
2023-04-09T09:41:47.101Z,61.20
2023-04-09T09:44:31.768Z,61.10
2023-04-09T09:47:01.234Z,60.20
2023-04-09T09:49:27.822Z,60.70
2023-04-09T09:51:59.379Z,60.80
2023-04-09T09:54:28.450Z,60.30
2023-04-09T09:57:04.448Z,60.00
2023-04-09T09:59:34.287Z,59.30
2023-04-09T10:02:05.826Z,59.10
2023-04-09T10:04:36.417Z,58.70
2023-04-09T10:07:05.760Z,58.70
2023-04-09T10:09:35.679Z,58.80
2023-04-09T10:12:06.784Z,58.90
2023-04-09T10:14:35.780Z,58.20
2023-04-09T10:17:03.864Z,57.50
2023-04-09T10:19:35.364Z,57.30
2023-04-09T10:22:11.945Z,56.50
2023-04-09T10:24:38.658Z,56.70
2023-04-09T10:27:15.974Z,56.40
2023-04-09T10:29:45.506Z,54.90
2023-04-09T10:32:12.853Z,55.50
2023-04-09T10:34:41.226Z,54.80
2023-04-09T10:37:09.875Z,54.10
2023-04-09T10:39:43.987Z,53.70
2023-04-09T10:42:21.904Z,53.00
2023-04-09T10:45:04.559Z,52.50
2023-04-09T10:47:32.287Z,51.20
2023-04-09T10:50:00.164Z,53.40
2023-04-09T10:52:32.186Z,51.70
2023-04-09T10:54:58.788Z,51.00
2023-04-09T10:57:26.190Z,50.70
2023-04-09T10:59:55.874Z,50.20
2023-04-09T11:02:31.879Z,49.90
2023-04-09T11:05:07.368Z,48.70
2023-04-09T11:07:40.249Z,49.10
2023-04-09T11:10:07.590Z,49.40
2023-04-09T11:12:34.213Z,49.40
2023-04-09T11:15:00.879Z,49.40
2023-04-09T11:17:27.839Z,49.10
2023-04-09T11:19:57.928Z,49.30
2023-04-09T11:22:24.553Z,49.10
2023-04-09T11:24:53.560Z,49.00
2023-04-09T11:27:20.782Z,48.90
2023-04-09T11:29:47.701Z,49.60
2023-04-09T11:32:14.340Z,49.30
2023-04-09T11:34:40.917Z,48.90
2023-04-09T11:37:13.859Z,48.60
2023-04-09T11:39:43.420Z,48.00
2023-04-09T11:42:17.391Z,48.10
2023-04-09T11:44:46.872Z,47.90
2023-04-09T11:47:14.421Z,48.30
2023-04-09T11:49:41.273Z,48.40
2023-04-09T11:52:07.877Z,48.10
2023-04-09T11:54:34.766Z,47.90
2023-04-09T11:57:03.478Z,48.30
2023-04-09T11:59:30.708Z,48.50
2023-04-09T12:02:01.386Z,48.40
2023-04-09T12:04:28.101Z,48.50
2023-04-09T12:06:58.711Z,48.70
2023-04-09T12:09:25.707Z,48.70
2023-04-09T12:11:52.498Z,49.30
2023-04-09T12:14:21.843Z,48.90
2023-04-09T12:16:52.001Z,48.60
2023-04-09T12:19:20.308Z,48.40
2023-04-09T12:21:52.808Z,48.40
2023-04-09T12:24:21.503Z,47.70
2023-04-09T12:26:48.626Z,48.20
2023-04-09T12:29:17.980Z,48.30
2023-04-09T12:31:45.619Z,47.50
2023-04-09T12:34:12.526Z,47.80
2023-04-09T12:36:41.501Z,47.40
2023-04-09T12:39:09.325Z,47.30
2023-04-09T12:41:38.336Z,47.30
2023-04-09T12:44:05.148Z,47.50
2023-04-09T12:46:32.421Z,47.30
2023-04-09T12:48:59.340Z,47.20
2023-04-09T12:51:28.410Z,46.40
2023-04-09T12:53:55.231Z,47.00
2023-04-09T12:56:21.996Z,46.40
2023-04-09T12:58:48.633Z,46.20
2023-04-09T13:01:15.228Z,45.90
2023-04-09T13:03:42.242Z,46.20
2023-04-09T13:06:09.149Z,45.80
2023-04-09T13:08:35.834Z,44.70
2023-04-09T13:11:02.863Z,44.60
2023-04-09T13:13:29.603Z,44.20
2023-04-09T13:15:56.220Z,43.70
2023-04-09T13:18:22.807Z,43.80
2023-04-09T13:20:49.411Z,43.60
2023-04-09T13:23:17.343Z,43.40
2023-04-09T13:25:43.963Z,43.10
2023-04-09T13:28:10.865Z,43.20
2023-04-09T13:30:39.660Z,43.00
2023-04-09T13:33:06.391Z,43.10
2023-04-09T13:35:33.103Z,43.00
2023-04-09T13:37:59.736Z,42.80
2023-04-09T13:40:30.657Z,43.20
2023-04-09T13:42:57.247Z,42.90
2023-04-09T13:45:23.981Z,42.70
2023-04-09T13:47:50.899Z,42.80
2023-04-09T13:50:17.519Z,42.30
2023-04-09T13:52:44.038Z,41.50
2023-04-09T13:55:11.271Z,40.50
2023-04-09T13:57:37.840Z,38.60
2023-04-09T14:00:08.077Z,38.10
2023-04-09T14:02:34.887Z,35.50
2023-04-09T14:05:03.551Z,35.30
2023-04-09T14:07:30.668Z,34.20
2023-04-09T14:09:57.756Z,33.40
2023-04-09T14:12:24.392Z,32.10
2023-04-09T14:14:51.535Z,31.10
2023-04-09T14:17:18.092Z,30.30
2023-04-09T14:19:44.636Z,29.60
2023-04-09T14:22:11.371Z,28.50
2023-04-09T14:24:39.679Z,27.70
2023-04-09T14:27:07.580Z,27.30
2023-04-09T14:29:34.472Z,27.00
2023-04-09T14:32:01.412Z,27.20
2023-04-09T14:34:33.335Z,27.00
2023-04-09T14:36:59.950Z,26.80
2023-04-09T14:39:26.512Z,26.70
2023-04-09T14:41:54.298Z,26.60
2023-04-09T14:44:20.950Z,26.10
2023-04-09T14:46:47.591Z,25.40
2023-04-09T14:49:14.165Z,24.80
2023-04-09T14:51:40.889Z,24.90
2023-04-09T14:54:07.513Z,25.10
2023-04-09T14:56:34.168Z,25.00
2023-04-09T14:59:00.837Z,25.20
2023-04-09T15:01:27.911Z,24.90
2023-04-09T15:03:55.263Z,24.70
2023-04-09T15:06:22.146Z,24.50
2023-04-09T15:08:48.713Z,24.60
2023-04-09T15:11:20.534Z,24.40
2023-04-09T15:13:47.082Z,23.80
2023-04-09T15:16:27.619Z,24.10
2023-04-09T15:18:57.467Z,23.70
2023-04-09T15:21:24.248Z,23.40
2023-04-09T15:23:51.230Z,23.20
2023-04-09T15:26:17.915Z,23.10
2023-04-09T15:28:46.050Z,23.20
2023-04-09T15:31:13.245Z,23.20
2023-04-09T15:33:42.802Z,23.10
2023-04-09T15:36:09.619Z,22.80
2023-04-09T15:38:36.224Z,23.00
2023-04-09T15:41:04.370Z,23.00
2023-04-09T15:43:31.508Z,22.90
2023-04-09T15:45:58.180Z,22.80
2023-04-09T15:48:24.792Z,22.60
2023-04-09T15:50:51.760Z,22.40
2023-04-09T15:53:19.535Z,22.30
2023-04-09T15:55:46.254Z,22.10
2023-04-09T15:58:12.894Z,22.20
2023-04-09T16:00:39.505Z,22.10
2023-04-09T16:03:06.031Z,22.20
2023-04-09T16:05:32.714Z,22.00
2023-04-09T16:07:59.998Z,22.20
2023-04-09T16:10:26.712Z,22.20
2023-04-09T16:12:53.301Z,22.50
2023-04-09T16:15:19.938Z,22.40
2023-04-09T16:17:46.515Z,22.30
2023-04-09T16:20:13.267Z,22.20
2023-04-09T16:22:40.089Z,22.20
2023-04-09T16:25:07.298Z,22.20
2023-04-09T16:27:33.850Z,22.30
2023-04-09T16:30:00.892Z,22.30
2023-04-09T16:32:27.510Z,22.40
2023-04-09T16:34:54.145Z,22.50
2023-04-09T16:37:20.761Z,22.40
2023-04-09T16:39:49.832Z,22.80
2023-04-09T16:42:16.510Z,22.60
2023-04-09T16:44:43.373Z,23.10
2023-04-09T16:47:10.190Z,23.00
2023-04-09T16:49:36.987Z,23.00
2023-04-09T16:52:03.610Z,22.90
2023-04-09T16:54:30.765Z,23.00
2023-04-09T16:56:58.353Z,23.10
2023-04-09T16:59:25.234Z,23.10
2023-04-09T17:01:51.976Z,22.90
2023-04-09T17:04:18.879Z,22.80
2023-04-09T17:06:45.959Z,22.90
2023-04-09T17:09:12.526Z,23.10
2023-04-09T17:11:39.155Z,23.20
2023-04-09T17:14:05.809Z,23.20
2023-04-09T17:16:33.014Z,23.20
2023-04-09T17:18:59.587Z,23.50
2023-04-09T17:21:26.351Z,23.70
2023-04-09T17:23:52.906Z,24.00
2023-04-09T17:26:20.518Z,24.10
2023-04-09T17:28:47.484Z,24.00
2023-04-09T17:31:15.746Z,24.30
2023-04-09T17:33:46.848Z,24.60
2023-04-09T17:36:14.550Z,25.10
2023-04-09T17:38:42.283Z,25.60
2023-04-09T17:41:08.945Z,26.00
2023-04-09T17:43:36.584Z,26.10
2023-04-09T17:46:03.579Z,26.40
2023-04-09T17:48:31.942Z,26.80
2023-04-09T17:50:58.892Z,27.30
2023-04-09T17:53:25.512Z,27.70
2023-04-09T17:55:52.623Z,28.00
2023-04-09T17:58:19.193Z,28.30
2023-04-09T18:00:45.909Z,28.60
2023-04-09T18:03:13.187Z,28.60
2023-04-09T18:05:40.311Z,28.70
2023-04-09T18:08:07.256Z,29.20
2023-04-09T18:10:34.087Z,29.70
2023-04-09T18:13:00.666Z,30.30
2023-04-09T18:15:28.137Z,30.10
2023-04-09T18:17:54.754Z,30.70
2023-04-09T18:20:21.655Z,31.40
2023-04-09T18:22:48.384Z,31.70
2023-04-09T18:25:15.605Z,31.80
2023-04-09T18:27:42.711Z,32.00
2023-04-09T18:30:09.666Z,32.70
2023-04-09T18:32:36.246Z,33.00
2023-04-09T18:35:04.877Z,33.10
2023-04-09T18:37:33.946Z,33.70
2023-04-09T18:40:02.441Z,34.30
2023-04-09T18:42:29.453Z,34.30
2023-04-09T18:44:56.293Z,34.80
2023-04-09T18:47:22.919Z,35.20
2023-04-09T18:49:49.677Z,35.70
2023-04-09T18:52:16.401Z,36.10
2023-04-09T18:54:43.262Z,36.40
2023-04-09T18:57:11.994Z,36.70
2023-04-09T18:59:42.466Z,36.90
2023-04-09T19:02:09.158Z,37.10
2023-04-09T19:04:40.006Z,37.40
2023-04-09T19:07:07.380Z,37.80
2023-04-09T19:09:37.216Z,38.00
2023-04-09T19:12:05.646Z,38.40
2023-04-09T19:14:32.285Z,38.70
2023-04-09T19:17:01.489Z,38.90
2023-04-09T19:19:28.920Z,39.30
2023-04-09T19:21:55.563Z,39.50
2023-04-09T19:24:23.409Z,39.80
2023-04-09T19:26:54.822Z,40.00
2023-04-09T19:29:26.802Z,40.30
2023-04-09T19:31:55.787Z,40.40
2023-04-09T19:34:26.935Z,40.70
2023-04-09T19:36:56.290Z,41.20
2023-04-09T19:39:24.768Z,41.10
2023-04-09T19:41:58.833Z,41.40
2023-04-09T19:44:26.230Z,41.60
2023-04-09T19:46:56.942Z,41.90
2023-04-09T19:49:26.043Z,42.20
2023-04-09T19:51:53.233Z,42.30
2023-04-09T19:54:19.820Z,42.60
2023-04-09T19:56:49.280Z,43.50
2023-04-09T19:59:16.593Z,43.00
2023-04-09T20:01:45.400Z,43.00
2023-04-09T20:04:14.725Z,43.30
2023-04-09T20:06:45.032Z,43.60
2023-04-09T20:09:17.012Z,43.90
2023-04-09T20:11:43.724Z,43.90
2023-04-09T20:14:11.949Z,44.10
2023-04-09T20:16:41.035Z,44.30
2023-04-09T20:19:09.781Z,44.40
2023-04-09T20:21:38.742Z,44.60
2023-04-09T20:24:06.641Z,44.80
2023-04-09T20:26:33.426Z,45.10
2023-04-09T20:29:02.409Z,45.10
2023-04-09T20:31:30.676Z,45.20
2023-04-09T20:34:01.445Z,45.40
2023-04-09T20:36:30.846Z,45.50
2023-04-09T20:38:57.398Z,45.80
2023-04-09T20:41:26.026Z,45.70
2023-04-09T20:43:57.323Z,45.80
2023-04-09T20:46:23.924Z,45.90
2023-04-09T20:48:52.885Z,46.00
2023-04-09T20:51:22.163Z,46.20
2023-04-09T20:53:49.084Z,46.50
2023-04-09T20:56:15.782Z,46.20
2023-04-09T20:58:47.547Z,46.40
2023-04-09T21:01:14.137Z,46.70
2023-04-09T21:03:43.385Z,46.40
2023-04-09T21:06:11.068Z,46.50
2023-04-09T21:08:42.525Z,46.50
2023-04-09T21:11:12.367Z,46.80
2023-04-09T21:13:53.942Z,46.60
2023-04-09T21:16:23.801Z,46.90
2023-04-09T21:18:53.177Z,46.60
2023-04-09T21:21:22.279Z,46.90
2023-04-09T21:23:48.874Z,46.70
2023-04-09T21:26:15.545Z,46.80
2023-04-09T21:28:42.160Z,47.30
2023-04-09T21:31:10.934Z,47.00
2023-04-09T21:33:39.012Z,47.20
2023-04-09T21:36:07.519Z,47.10
2023-04-09T21:38:34.194Z,47.20
2023-04-09T21:41:01.650Z,47.20
2023-04-09T21:43:29.034Z,47.20
2023-04-09T21:45:56.978Z,47.30
2023-04-09T21:48:23.858Z,47.40
2023-04-09T21:50:50.757Z,47.40
2023-04-09T21:53:17.599Z,47.40
2023-04-09T21:55:48.183Z,47.40
2023-04-09T21:58:17.054Z,47.60
2023-04-09T22:00:43.672Z,47.80
2023-04-09T22:03:12.359Z,47.60
2023-04-09T22:05:39.101Z,47.60
2023-04-09T22:08:07.335Z,47.90
2023-04-09T22:10:36.304Z,48.00
2023-04-09T22:13:02.900Z,48.20
2023-04-09T22:15:32.069Z,48.30
2023-04-09T22:17:58.741Z,48.50
2023-04-09T22:20:26.246Z,48.60
2023-04-09T22:22:55.593Z,48.80
2023-04-09T22:25:22.273Z,49.30
2023-04-09T22:27:53.036Z,49.10
2023-04-09T22:30:23.550Z,49.50
2023-04-09T22:32:51.315Z,49.40
2023-04-09T22:35:20.032Z,49.30
2023-04-09T22:37:49.162Z,49.40
2023-04-09T22:40:16.544Z,49.50
2023-04-09T22:42:45.799Z,49.70
2023-04-09T22:45:12.767Z,49.70
2023-04-09T22:47:39.804Z,49.80
2023-04-09T22:50:09.674Z,50.00
2023-04-09T22:52:36.280Z,50.10
2023-04-09T22:55:06.404Z,50.10
2023-04-09T22:57:32.986Z,50.30
2023-04-09T22:59:59.536Z,50.10
2023-04-09T23:02:27.127Z,50.10
2023-04-09T23:04:53.949Z,50.10
2023-04-09T23:07:23.057Z,50.20
2023-04-09T23:09:49.726Z,50.10
2023-04-09T23:12:16.423Z,50.20
2023-04-09T23:14:42.973Z,50.30
2023-04-09T23:17:09.610Z,50.50
2023-04-09T23:19:36.270Z,50.60
2023-04-09T23:22:02.863Z,50.60
2023-04-09T23:24:29.478Z,50.60
2023-04-09T23:26:56.218Z,50.60
2023-04-09T23:29:22.907Z,50.70
2023-04-09T23:31:51.922Z,50.70
2023-04-09T23:34:19.826Z,50.80
2023-04-09T23:36:46.383Z,50.90
2023-04-09T23:39:12.960Z,51.00
2023-04-09T23:41:39.525Z,51.10
2023-04-09T23:44:06.089Z,51.10
2023-04-09T23:46:32.674Z,51.20
2023-04-09T23:49:00.208Z,51.30
2023-04-09T23:51:26.793Z,51.30
2023-04-09T23:53:53.542Z,51.30
2023-04-09T23:56:20.255Z,51.30
2023-04-09T23:58:46.841Z,51.40
